sensor_id;sensor_type;location;lat;lon;timestamp;pressure;altitude;pressure_sealevel;temperature;humidity
60465;BME280;46314;52.392;9.758;2024-03-06T00:00:25;101170.13;;;5.23;88.49
60465;BME280;46314;52.392;9.758;2024-03-06T00:02:51;101165.75;;;5.66;85.85
60465;BME280;46314;52.392;9.758;2024-03-06T00:05:18;101175.28;;;5.58;85.80
60465;BME280;46314;52.392;9.758;2024-03-06T00:07:44;101172.09;;;5.27;86.24
60465;BME280;46314;52.392;9.758;2024-03-06T00:10:11;101172.47;;;5.53;86.40
60465;BME280;46314;52.392;9.758;2024-03-06T00:12:38;101173.09;;;5.60;85.73
60465;BME280;46314;52.392;9.758;2024-03-06T00:15:07;101175.41;;;5.46;86.31
60465;BME280;46314;52.392;9.758;2024-03-06T00:17:33;101181.69;;;5.25;86.88
60465;BME280;46314;52.392;9.758;2024-03-06T00:20:00;101184.47;;;5.25;87.33
60465;BME280;46314;52.392;9.758;2024-03-06T00:22:26;101185.31;;;5.47;86.21
60465;BME280;46314;52.392;9.758;2024-03-06T00:24:53;101194.88;;;5.06;88.17
60465;BME280;46314;52.392;9.758;2024-03-06T00:27:19;101190.69;;;5.37;86.14
60465;BME280;46314;52.392;9.758;2024-03-06T00:29:46;101192.84;;;5.35;87.04
60465;BME280;46314;52.392;9.758;2024-03-06T00:32:13;101195.69;;;5.40;86.90
60465;BME280;46314;52.392;9.758;2024-03-06T00:34:40;101193.47;;;5.81;85.56
60465;BME280;46314;52.392;9.758;2024-03-06T00:37:07;101199.25;;;5.41;86.31
60465;BME280;46314;52.392;9.758;2024-03-06T00:39:33;101201.84;;;5.47;86.77
60465;BME280;46314;52.392;9.758;2024-03-06T00:41:59;101205.31;;;5.60;85.48
60465;BME280;46314;52.392;9.758;2024-03-06T00:44:26;101198.09;;;5.37;86.32
60465;BME280;46314;52.392;9.758;2024-03-06T00:46:52;101205.34;;;5.43;86.61
60465;BME280;46314;52.392;9.758;2024-03-06T00:49:20;101202.63;;;5.26;87.11
60465;BME280;46314;52.392;9.758;2024-03-06T00:51:47;101205.84;;;5.40;86.60
60465;BME280;46314;52.392;9.758;2024-03-06T00:54:15;101206.03;;;5.33;86.37
60465;BME280;46314;52.392;9.758;2024-03-06T00:56:41;101206.69;;;5.40;86.24
60465;BME280;46314;52.392;9.758;2024-03-06T00:59:08;101211.38;;;5.62;85.42
60465;BME280;46314;52.392;9.758;2024-03-06T01:01:35;101203.56;;;5.54;85.82
60465;BME280;46314;52.392;9.758;2024-03-06T01:04:02;101209.84;;;6.15;82.71
60465;BME280;46314;52.392;9.758;2024-03-06T01:06:29;101214.59;;;6.20;81.83
60465;BME280;46314;52.392;9.758;2024-03-06T01:08:56;101219.44;;;5.91;83.97
60465;BME280;46314;52.392;9.758;2024-03-06T01:11:23;101220.63;;;5.56;84.85
60465;BME280;46314;52.392;9.758;2024-03-06T01:13:49;101215.28;;;6.10;83.03
60465;BME280;46314;52.392;9.758;2024-03-06T01:16:16;101218.78;;;6.00;83.41
60465;BME280;46314;52.392;9.758;2024-03-06T01:18:42;101217.53;;;5.30;87.28
60465;BME280;46314;52.392;9.758;2024-03-06T01:21:09;101221.50;;;5.56;85.11
60465;BME280;46314;52.392;9.758;2024-03-06T01:23:36;101222.81;;;5.54;85.74
60465;BME280;46314;52.392;9.758;2024-03-06T01:26:03;101222.44;;;5.89;84.30
60465;BME280;46314;52.392;9.758;2024-03-06T01:28:30;101220.09;;;5.98;84.73
60465;BME280;46314;52.392;9.758;2024-03-06T01:30:57;101231.72;;;6.00;83.96
60465;BME280;46314;52.392;9.758;2024-03-06T01:33:23;101228.53;;;6.35;82.32
60465;BME280;46314;52.392;9.758;2024-03-06T01:35:50;101235.97;;;5.91;83.68
60465;BME280;46314;52.392;9.758;2024-03-06T01:38:16;101238.75;;;6.13;83.71
60465;BME280;46314;52.392;9.758;2024-03-06T01:40:44;101243.16;;;6.14;83.36
60465;BME280;46314;52.392;9.758;2024-03-06T01:43:21;101246.91;;;5.85;83.66
60465;BME280;46314;52.392;9.758;2024-03-06T01:45:48;101250.94;;;5.78;85.14
60465;BME280;46314;52.392;9.758;2024-03-06T01:48:16;101247.75;;;5.86;84.38
60465;BME280;46314;52.392;9.758;2024-03-06T01:50:42;101248.28;;;6.27;83.91
60465;BME280;46314;52.392;9.758;2024-03-06T01:53:09;101246.41;;;5.88;84.75
60465;BME280;46314;52.392;9.758;2024-03-06T01:55:36;101255.22;;;6.07;85.60
60465;BME280;46314;52.392;9.758;2024-03-06T01:58:04;101255.16;;;5.85;85.09
60465;BME280;46314;52.392;9.758;2024-03-06T02:00:31;101248.28;;;6.05;84.44
60465;BME280;46314;52.392;9.758;2024-03-06T02:02:58;101248.94;;;5.73;86.69
60465;BME280;46314;52.392;9.758;2024-03-06T02:05:24;101253.06;;;5.93;86.23
60465;BME280;46314;52.392;9.758;2024-03-06T02:07:53;101259.16;;;5.95;85.68
60465;BME280;46314;52.392;9.758;2024-03-06T02:10:21;101262.28;;;5.81;85.90
60465;BME280;46314;52.392;9.758;2024-03-06T02:12:48;101257.44;;;5.49;88.44
60465;BME280;46314;52.392;9.758;2024-03-06T02:15:16;101255.97;;;5.64;88.57
60465;BME280;46314;52.392;9.758;2024-03-06T02:17:42;101259.28;;;5.83;87.78
60465;BME280;46314;52.392;9.758;2024-03-06T02:20:10;101254.66;;;5.66;88.49
60465;BME280;46314;52.392;9.758;2024-03-06T02:22:38;101255.47;;;5.67;88.24
60465;BME280;46314;52.392;9.758;2024-03-06T02:25:06;101257.09;;;5.46;88.90
60465;BME280;46314;52.392;9.758;2024-03-06T02:27:32;101258.09;;;5.96;86.32
60465;BME280;46314;52.392;9.758;2024-03-06T02:29:59;101254.78;;;5.77;87.46
60465;BME280;46314;52.392;9.758;2024-03-06T02:32:25;101262.94;;;5.72;87.56
60465;BME280;46314;52.392;9.758;2024-03-06T02:34:52;101261.00;;;5.50;87.81
60465;BME280;46314;52.392;9.758;2024-03-06T02:37:18;101264.00;;;5.48;88.20
60465;BME280;46314;52.392;9.758;2024-03-06T02:39:46;101260.03;;;5.78;87.38
60465;BME280;46314;52.392;9.758;2024-03-06T02:42:12;101258.06;;;5.74;88.19
60465;BME280;46314;52.392;9.758;2024-03-06T02:44:39;101262.38;;;5.69;88.05
60465;BME280;46314;52.392;9.758;2024-03-06T02:47:05;101264.34;;;5.52;88.42
60465;BME280;46314;52.392;9.758;2024-03-06T02:49:32;101263.09;;;5.60;87.20
60465;BME280;46314;52.392;9.758;2024-03-06T02:51:58;101265.75;;;5.55;88.22
60465;BME280;46314;52.392;9.758;2024-03-06T02:54:25;101268.19;;;5.34;89.20
60465;BME280;46314;52.392;9.758;2024-03-06T02:56:53;101263.47;;;5.68;87.39
60465;BME280;46314;52.392;9.758;2024-03-06T02:59:19;101263.88;;;5.38;89.35
60465;BME280;46314;52.392;9.758;2024-03-06T03:01:46;101267.28;;;5.28;90.30
60465;BME280;46314;52.392;9.758;2024-03-06T03:04:12;101271.00;;;5.56;88.92
60465;BME280;46314;52.392;9.758;2024-03-06T03:06:39;101264.31;;;5.69;87.39
60465;BME280;46314;52.392;9.758;2024-03-06T03:09:05;101262.53;;;5.41;88.99
60465;BME280;46314;52.392;9.758;2024-03-06T03:11:31;101272.63;;;5.18;90.00
60465;BME280;46314;52.392;9.758;2024-03-06T03:13:59;101276.94;;;5.31;90.33
60465;BME280;46314;52.392;9.758;2024-03-06T03:16:26;101276.13;;;5.30;89.23
60465;BME280;46314;52.392;9.758;2024-03-06T03:18:52;101278.31;;;5.67;87.53
60465;BME280;46314;52.392;9.758;2024-03-06T03:21:19;101274.50;;;5.52;87.99
60465;BME280;46314;52.392;9.758;2024-03-06T03:23:45;101276.84;;;5.60;87.24
60465;BME280;46314;52.392;9.758;2024-03-06T03:26:11;101279.19;;;5.51;89.50
60465;BME280;46314;52.392;9.758;2024-03-06T03:28:38;101273.06;;;5.66;88.08
60465;BME280;46314;52.392;9.758;2024-03-06T03:31:07;101274.31;;;5.75;87.07
60465;BME280;46314;52.392;9.758;2024-03-06T03:33:33;101281.53;;;5.42;89.66
60465;BME280;46314;52.392;9.758;2024-03-06T03:36:00;101287.28;;;5.41;88.82
60465;BME280;46314;52.392;9.758;2024-03-06T03:38:26;101283.19;;;5.60;88.25
60465;BME280;46314;52.392;9.758;2024-03-06T03:40:53;101284.69;;;5.51;88.50
60465;BME280;46314;52.392;9.758;2024-03-06T03:43:19;101291.88;;;5.35;90.03
60465;BME280;46314;52.392;9.758;2024-03-06T03:45:45;101289.69;;;5.54;88.28
60465;BME280;46314;52.392;9.758;2024-03-06T03:48:13;101294.22;;;5.26;89.65
60465;BME280;46314;52.392;9.758;2024-03-06T03:50:40;101291.56;;;5.31;89.55
60465;BME280;46314;52.392;9.758;2024-03-06T03:53:06;101287.03;;;5.25;90.66
60465;BME280;46314;52.392;9.758;2024-03-06T03:55:33;101286.22;;;5.25;90.09
60465;BME280;46314;52.392;9.758;2024-03-06T03:57:59;101290.06;;;5.07;91.98
60465;BME280;46314;52.392;9.758;2024-03-06T04:00:26;101288.34;;;5.40;89.89
60465;BME280;46314;52.392;9.758;2024-03-06T04:02:52;101295.16;;;5.71;88.55
60465;BME280;46314;52.392;9.758;2024-03-06T04:05:20;101295.53;;;5.58;89.19
60465;BME280;46314;52.392;9.758;2024-03-06T04:07:47;101295.13;;;5.49;89.48
60465;BME280;46314;52.392;9.758;2024-03-06T04:10:13;101299.00;;;5.70;88.10
60465;BME280;46314;52.392;9.758;2024-03-06T04:12:40;101305.34;;;5.54;89.56
60465;BME280;46314;52.392;9.758;2024-03-06T04:15:07;101304.56;;;5.19;90.90
60465;BME280;46314;52.392;9.758;2024-03-06T04:17:35;101306.72;;;5.34;90.34
60465;BME280;46314;52.392;9.758;2024-03-06T04:20:01;101311.22;;;5.23;91.02
60465;BME280;46314;52.392;9.758;2024-03-06T04:22:29;101314.88;;;5.12;91.55
60465;BME280;46314;52.392;9.758;2024-03-06T04:24:56;101309.19;;;5.19;91.53
60465;BME280;46314;52.392;9.758;2024-03-06T04:27:22;101311.88;;;5.30;90.43
60465;BME280;46314;52.392;9.758;2024-03-06T04:29:48;101316.31;;;5.31;90.95
60465;BME280;46314;52.392;9.758;2024-03-06T04:32:15;101320.09;;;5.13;92.83
60465;BME280;46314;52.392;9.758;2024-03-06T04:34:41;101318.47;;;5.46;89.94
60465;BME280;46314;52.392;9.758;2024-03-06T04:37:08;101308.56;;;5.45;90.46
60465;BME280;46314;52.392;9.758;2024-03-06T04:39:35;101314.28;;;5.27;90.02
60465;BME280;46314;52.392;9.758;2024-03-06T04:42:02;101324.97;;;5.40;89.35
60465;BME280;46314;52.392;9.758;2024-03-06T04:44:29;101320.19;;;5.19;91.18
60465;BME280;46314;52.392;9.758;2024-03-06T04:46:55;101324.66;;;5.37;90.95
60465;BME280;46314;52.392;9.758;2024-03-06T04:49:22;101337.03;;;5.05;91.77
60465;BME280;46314;52.392;9.758;2024-03-06T04:51:48;101337.88;;;5.23;91.82
60465;BME280;46314;52.392;9.758;2024-03-06T04:54:14;101332.13;;;5.41;90.09
60465;BME280;46314;52.392;9.758;2024-03-06T04:56:42;101342.53;;;5.05;92.05
60465;BME280;46314;52.392;9.758;2024-03-06T04:59:09;101344.94;;;5.19;91.46
60465;BME280;46314;52.392;9.758;2024-03-06T05:01:35;101343.78;;;5.15;92.01
60465;BME280;46314;52.392;9.758;2024-03-06T05:04:02;101346.75;;;5.42;90.29
60465;BME280;46314;52.392;9.758;2024-03-06T05:06:46;101359.88;;;5.23;91.28
60465;BME280;46314;52.392;9.758;2024-03-06T05:09:29;101353.59;;;4.93;93.29
60465;BME280;46314;52.392;9.758;2024-03-06T05:12:14;101355.63;;;5.32;90.60
60465;BME280;46314;52.392;9.758;2024-03-06T05:14:58;101352.25;;;5.42;90.77
60465;BME280;46314;52.392;9.758;2024-03-06T05:17:42;101364.91;;;5.43;90.84
60465;BME280;46314;52.392;9.758;2024-03-06T05:20:27;101360.38;;;5.87;87.71
60465;BME280;46314;52.392;9.758;2024-03-06T05:23:11;101366.31;;;5.45;90.42
60465;BME280;46314;52.392;9.758;2024-03-06T05:25:55;101373.41;;;5.24;91.16
60465;BME280;46314;52.392;9.758;2024-03-06T05:28:40;101372.75;;;5.51;90.15
60465;BME280;46314;52.392;9.758;2024-03-06T05:31:24;101369.06;;;5.45;91.31
60465;BME280;46314;52.392;9.758;2024-03-06T05:34:08;101374.91;;;5.49;90.74
60465;BME280;46314;52.392;9.758;2024-03-06T05:36:52;101376.41;;;5.57;89.63
60465;BME280;46314;52.392;9.758;2024-03-06T05:39:36;101380.41;;;5.49;90.37
60465;BME280;46314;52.392;9.758;2024-03-06T05:42:20;101384.72;;;5.45;91.48
60465;BME280;46314;52.392;9.758;2024-03-06T05:45:06;101385.50;;;5.40;91.06
60465;BME280;46314;52.392;9.758;2024-03-06T05:47:50;101388.75;;;5.54;91.56
60465;BME280;46314;52.392;9.758;2024-03-06T05:50:34;101390.91;;;5.35;91.80
60465;BME280;46314;52.392;9.758;2024-03-06T05:53:18;101397.75;;;5.49;90.15
60465;BME280;46314;52.392;9.758;2024-03-06T05:56:04;101389.81;;;5.19;92.34
60465;BME280;46314;52.392;9.758;2024-03-06T05:58:48;101394.00;;;4.93;94.11
60465;BME280;46314;52.392;9.758;2024-03-06T06:01:16;101397.13;;;4.85;94.67
60465;BME280;46314;52.392;9.758;2024-03-06T06:03:42;101395.47;;;4.84;94.16
60465;BME280;46314;52.392;9.758;2024-03-06T06:06:09;101399.84;;;5.13;93.74
60465;BME280;46314;52.392;9.758;2024-03-06T06:08:36;101410.16;;;5.06;94.17
60465;BME280;46314;52.392;9.758;2024-03-06T06:11:02;101412.59;;;4.62;95.86
60465;BME280;46314;52.392;9.758;2024-03-06T06:13:29;101411.03;;;5.53;91.57
60465;BME280;46314;52.392;9.758;2024-03-06T06:15:57;101404.31;;;5.31;91.60
60465;BME280;46314;52.392;9.758;2024-03-06T06:18:25;101407.59;;;5.00;94.12
60465;BME280;46314;52.392;9.758;2024-03-06T06:20:51;101407.41;;;5.52;91.42
60465;BME280;46314;52.392;9.758;2024-03-06T06:23:18;101414.31;;;5.21;92.05
60465;BME280;46314;52.392;9.758;2024-03-06T06:25:44;101421.66;;;5.32;93.26
60465;BME280;46314;52.392;9.758;2024-03-06T06:28:11;101421.66;;;5.32;92.62
60465;BME280;46314;52.392;9.758;2024-03-06T06:30:37;101419.72;;;5.32;92.57
60465;BME280;46314;52.392;9.758;2024-03-06T06:33:04;101424.19;;;5.05;94.68
60465;BME280;46314;52.392;9.758;2024-03-06T06:35:32;101431.94;;;5.37;93.51
60465;BME280;46314;52.392;9.758;2024-03-06T06:37:58;101433.63;;;5.55;90.84
60465;BME280;46314;52.392;9.758;2024-03-06T06:40:25;101434.00;;;5.46;92.01
60465;BME280;46314;52.392;9.758;2024-03-06T06:42:51;101447.38;;;5.55;90.77
60465;BME280;46314;52.392;9.758;2024-03-06T06:45:19;101443.38;;;5.79;90.15
60465;BME280;46314;52.392;9.758;2024-03-06T06:47:48;101449.69;;;5.46;91.80
60465;BME280;46314;52.392;9.758;2024-03-06T06:50:15;101448.81;;;6.08;88.53
60465;BME280;46314;52.392;9.758;2024-03-06T06:52:43;101459.97;;;6.35;85.14
60465;BME280;46314;52.392;9.758;2024-03-06T06:55:09;101461.44;;;6.04;87.89
60465;BME280;46314;52.392;9.758;2024-03-06T06:57:36;101467.75;;;6.04;86.77
60465;BME280;46314;52.392;9.758;2024-03-06T07:00:03;101466.63;;;5.55;90.33
60465;BME280;46314;52.392;9.758;2024-03-06T07:02:30;101477.06;;;5.24;92.45
60465;BME280;46314;52.392;9.758;2024-03-06T07:04:56;101473.34;;;5.47;91.45
60465;BME280;46314;52.392;9.758;2024-03-06T07:07:23;101475.13;;;5.53;90.85
60465;BME280;46314;52.392;9.758;2024-03-06T07:09:50;101483.56;;;5.80;89.84
60465;BME280;46314;52.392;9.758;2024-03-06T07:12:17;101483.75;;;5.91;89.24
60465;BME280;46314;52.392;9.758;2024-03-06T07:14:43;101490.13;;;5.91;88.76
60465;BME280;46314;52.392;9.758;2024-03-06T07:17:10;101491.84;;;5.80;90.16
60465;BME280;46314;52.392;9.758;2024-03-06T07:19:36;101492.88;;;6.08;87.75
60465;BME280;46314;52.392;9.758;2024-03-06T07:22:03;101488.66;;;5.72;89.96
60465;BME280;46314;52.392;9.758;2024-03-06T07:24:29;101499.84;;;5.82;89.89
60465;BME280;46314;52.392;9.758;2024-03-06T07:26:57;101503.97;;;6.13;87.46
60465;BME280;46314;52.392;9.758;2024-03-06T07:29:24;101513.50;;;5.60;89.87
60465;BME280;46314;52.392;9.758;2024-03-06T07:31:50;101513.47;;;5.88;89.95
60465;BME280;46314;52.392;9.758;2024-03-06T07:34:17;101509.22;;;5.81;89.87
60465;BME280;46314;52.392;9.758;2024-03-06T07:36:43;101513.91;;;5.52;90.53
60465;BME280;46314;52.392;9.758;2024-03-06T07:39:09;101517.31;;;5.87;90.55
60465;BME280;46314;52.392;9.758;2024-03-06T07:41:36;101521.66;;;6.17;88.38
60465;BME280;46314;52.392;9.758;2024-03-06T07:44:04;101525.69;;;6.27;87.78
60465;BME280;46314;52.392;9.758;2024-03-06T07:46:30;101529.88;;;5.66;91.30
60465;BME280;46314;52.392;9.758;2024-03-06T07:48:57;101532.16;;;5.86;90.17
60465;BME280;46314;52.392;9.758;2024-03-06T07:51:23;101534.19;;;5.62;91.80
60465;BME280;46314;52.392;9.758;2024-03-06T07:53:50;101534.53;;;5.66;90.85
60465;BME280;46314;52.392;9.758;2024-03-06T07:56:16;101542.28;;;5.69;91.32
60465;BME280;46314;52.392;9.758;2024-03-06T07:58:43;101552.03;;;5.60;91.31
60465;BME280;46314;52.392;9.758;2024-03-06T08:01:11;101553.69;;;5.90;90.32
60465;BME280;46314;52.392;9.758;2024-03-06T08:03:38;101554.22;;;5.75;91.96
60465;BME280;46314;52.392;9.758;2024-03-06T08:06:05;101559.44;;;5.30;93.95
60465;BME280;46314;52.392;9.758;2024-03-06T08:08:32;101553.75;;;5.49;92.63
60465;BME280;46314;52.392;9.758;2024-03-06T08:10:59;101565.56;;;5.78;91.28
60465;BME280;46314;52.392;9.758;2024-03-06T08:13:25;101566.25;;;5.68;90.97
60465;BME280;46314;52.392;9.758;2024-03-06T08:15:52;101572.38;;;5.59;92.56
60465;BME280;46314;52.392;9.758;2024-03-06T08:18:19;101573.06;;;5.66;92.79
60465;BME280;46314;52.392;9.758;2024-03-06T08:20:46;101569.97;;;5.91;90.21
60465;BME280;46314;52.392;9.758;2024-03-06T08:23:13;101576.25;;;6.20;88.92
60465;BME280;46314;52.392;9.758;2024-03-06T08:25:39;101577.97;;;5.64;92.14
60465;BME280;46314;52.392;9.758;2024-03-06T08:28:06;101585.16;;;5.65;91.29
60465;BME280;46314;52.392;9.758;2024-03-06T08:30:32;101586.44;;;5.74;91.78
60465;BME280;46314;52.392;9.758;2024-03-06T08:32:59;101580.78;;;5.81;90.35
60465;BME280;46314;52.392;9.758;2024-03-06T08:35:28;101590.84;;;5.46;92.83
60465;BME280;46314;52.392;9.758;2024-03-06T08:37:54;101593.19;;;5.66;93.26
60465;BME280;46314;52.392;9.758;2024-03-06T08:40:21;101599.38;;;6.02;89.66
60465;BME280;46314;52.392;9.758;2024-03-06T08:42:48;101598.13;;;6.10;88.64
60465;BME280;46314;52.392;9.758;2024-03-06T08:45:14;101606.19;;;5.71;90.10
60465;BME280;46314;52.392;9.758;2024-03-06T08:47:41;101607.97;;;6.06;89.14
60465;BME280;46314;52.392;9.758;2024-03-06T08:50:08;101604.91;;;6.19;87.07
60465;BME280;46314;52.392;9.758;2024-03-06T08:52:37;101617.00;;;5.90;89.62
60465;BME280;46314;52.392;9.758;2024-03-06T08:55:04;101612.50;;;6.12;90.49
60465;BME280;46314;52.392;9.758;2024-03-06T08:57:31;101613.00;;;6.26;88.60
60465;BME280;46314;52.392;9.758;2024-03-06T08:59:57;101613.66;;;6.16;88.99
60465;BME280;46314;52.392;9.758;2024-03-06T09:02:24;101611.41;;;6.47;86.51
60465;BME280;46314;52.392;9.758;2024-03-06T09:04:51;101616.81;;;7.32;82.32
60465;BME280;46314;52.392;9.758;2024-03-06T09:07:18;101617.34;;;6.73;84.11
60465;BME280;46314;52.392;9.758;2024-03-06T09:09:46;101618.50;;;6.94;84.56
60465;BME280;46314;52.392;9.758;2024-03-06T09:12:12;101615.25;;;6.80;85.88
60465;BME280;46314;52.392;9.758;2024-03-06T09:14:39;101615.63;;;6.50;87.48
60465;BME280;46314;52.392;9.758;2024-03-06T09:17:06;101621.56;;;7.14;83.84
60465;BME280;46314;52.392;9.758;2024-03-06T09:19:33;101624.84;;;6.94;85.98
60465;BME280;46314;52.392;9.758;2024-03-06T09:21:59;101618.13;;;6.51;86.89
60465;BME280;46314;52.392;9.758;2024-03-06T09:24:26;101626.31;;;6.46;88.63
60465;BME280;46314;52.392;9.758;2024-03-06T09:26:55;101638.09;;;7.14;85.77
60465;BME280;46314;52.392;9.758;2024-03-06T09:29:21;101632.84;;;7.13;85.58
60465;BME280;46314;52.392;9.758;2024-03-06T09:31:48;101640.00;;;6.75;86.22
60465;BME280;46314;52.392;9.758;2024-03-06T09:34:16;101638.28;;;7.08;86.10
60465;BME280;46314;52.392;9.758;2024-03-06T09:36:46;101640.09;;;7.19;84.79
60465;BME280;46314;52.392;9.758;2024-03-06T09:39:13;101641.84;;;6.86;86.36
60465;BME280;46314;52.392;9.758;2024-03-06T09:41:40;101650.41;;;7.07;85.06
60465;BME280;46314;52.392;9.758;2024-03-06T09:44:08;101648.84;;;6.94;86.20
60465;BME280;46314;52.392;9.758;2024-03-06T09:46:34;101647.56;;;7.41;83.42
60465;BME280;46314;52.392;9.758;2024-03-06T09:49:02;101648.25;;;7.31;84.77
60465;BME280;46314;52.392;9.758;2024-03-06T09:51:29;101658.69;;;7.68;81.95
60465;BME280;46314;52.392;9.758;2024-03-06T09:53:55;101663.09;;;7.47;82.83
60465;BME280;46314;52.392;9.758;2024-03-06T09:56:22;101660.25;;;7.86;81.47
60465;BME280;46314;52.392;9.758;2024-03-06T09:58:49;101663.41;;;7.94;80.99
60465;BME280;46314;52.392;9.758;2024-03-06T10:01:16;101661.22;;;8.24;79.23
60465;BME280;46314;52.392;9.758;2024-03-06T10:03:44;101662.44;;;7.84;79.82
60465;BME280;46314;52.392;9.758;2024-03-06T10:06:10;101663.53;;;8.59;76.75
60465;BME280;46314;52.392;9.758;2024-03-06T10:08:42;101665.91;;;7.96;80.13
60465;BME280;46314;52.392;9.758;2024-03-06T10:11:09;101670.44;;;8.62;76.83
60465;BME280;46314;52.392;9.758;2024-03-06T10:13:36;101665.78;;;9.00;75.08
60465;BME280;46314;52.392;9.758;2024-03-06T10:16:04;101667.13;;;8.32;77.29
60465;BME280;46314;52.392;9.758;2024-03-06T10:18:32;101676.81;;;8.35;78.07
60465;BME280;46314;52.392;9.758;2024-03-06T10:20:58;101672.69;;;8.10;78.80
60465;BME280;46314;52.392;9.758;2024-03-06T10:23:25;101676.34;;;9.08;74.24
60465;BME280;46314;52.392;9.758;2024-03-06T10:25:52;101679.97;;;9.14;74.30
60465;BME280;46314;52.392;9.758;2024-03-06T10:28:19;101675.97;;;8.57;77.27
60465;BME280;46314;52.392;9.758;2024-03-06T10:30:46;101686.22;;;8.99;76.12
60465;BME280;46314;52.392;9.758;2024-03-06T10:33:14;101682.16;;;9.06;73.66
60465;BME280;46314;52.392;9.758;2024-03-06T10:35:43;101687.66;;;9.01;73.84
60465;BME280;46314;52.392;9.758;2024-03-06T10:38:11;101692.06;;;8.97;74.01
60465;BME280;46314;52.392;9.758;2024-03-06T10:40:39;101696.88;;;8.47;77.15
60465;BME280;46314;52.392;9.758;2024-03-06T10:43:06;101697.59;;;8.65;75.33
60465;BME280;46314;52.392;9.758;2024-03-06T10:45:40;101698.41;;;8.60;77.04
60465;BME280;46314;52.392;9.758;2024-03-06T10:48:07;101703.78;;;8.77;75.71
60465;BME280;46314;52.392;9.758;2024-03-06T10:50:35;101704.41;;;8.30;77.70
60465;BME280;46314;52.392;9.758;2024-03-06T10:53:09;101702.06;;;8.17;78.20
60465;BME280;46314;52.392;9.758;2024-03-06T10:55:36;101704.22;;;8.64;76.44
60465;BME280;46314;52.392;9.758;2024-03-06T10:58:05;101700.50;;;8.48;75.21
60465;BME280;46314;52.392;9.758;2024-03-06T11:00:31;101697.72;;;8.26;76.63
60465;BME280;46314;52.392;9.758;2024-03-06T11:02:58;101695.69;;;9.03;72.24
60465;BME280;46314;52.392;9.758;2024-03-06T11:05:26;101703.53;;;10.37;67.44
60465;BME280;46314;52.392;9.758;2024-03-06T11:07:52;101699.66;;;10.33;66.76
60465;BME280;46314;52.392;9.758;2024-03-06T11:10:31;101704.00;;;9.45;69.42
60465;BME280;46314;52.392;9.758;2024-03-06T11:12:58;101703.88;;;9.73;69.62
60465;BME280;46314;52.392;9.758;2024-03-06T11:15:26;101707.84;;;9.02;70.95
60465;BME280;46314;52.392;9.758;2024-03-06T11:17:53;101708.53;;;9.67;68.91
60465;BME280;46314;52.392;9.758;2024-03-06T11:20:20;101704.72;;;9.25;70.37
60465;BME280;46314;52.392;9.758;2024-03-06T11:23:03;101706.28;;;8.79;71.27
60465;BME280;46314;52.392;9.758;2024-03-06T11:25:57;101707.53;;;9.41;70.22
60465;BME280;46314;52.392;9.758;2024-03-06T11:28:27;101716.44;;;8.68;72.18
60465;BME280;46314;52.392;9.758;2024-03-06T11:30:55;101713.97;;;9.09;69.82
60465;BME280;46314;52.392;9.758;2024-03-06T11:33:22;101713.81;;;9.74;67.66
60465;BME280;46314;52.392;9.758;2024-03-06T11:36:17;101708.94;;;9.96;67.42
60465;BME280;46314;52.392;9.758;2024-03-06T11:38:56;101710.28;;;9.31;69.51
60465;BME280;46314;52.392;9.758;2024-03-06T11:41:26;101721.47;;;9.08;71.02
60465;BME280;46314;52.392;9.758;2024-03-06T11:43:53;101713.09;;;9.41;69.78
60465;BME280;46314;52.392;9.758;2024-03-06T11:46:21;101712.56;;;9.44;69.54
60465;BME280;46314;52.392;9.758;2024-03-06T11:48:54;101718.13;;;9.06;69.55
60465;BME280;46314;52.392;9.758;2024-03-06T11:51:21;101714.31;;;8.80;71.19
60465;BME280;46314;52.392;9.758;2024-03-06T11:53:51;101705.94;;;9.02;71.90
60465;BME280;46314;52.392;9.758;2024-03-06T11:56:18;101708.31;;;9.26;70.84
60465;BME280;46314;52.392;9.758;2024-03-06T11:58:47;101710.22;;;9.73;67.76
60465;BME280;46314;52.392;9.758;2024-03-06T12:01:15;101714.53;;;9.06;70.79
60465;BME280;46314;52.392;9.758;2024-03-06T12:03:43;101717.19;;;9.81;68.34
60465;BME280;46314;52.392;9.758;2024-03-06T12:06:09;101714.63;;;9.69;67.83
60465;BME280;46314;52.392;9.758;2024-03-06T12:08:36;101710.78;;;8.58;70.56
60465;BME280;46314;52.392;9.758;2024-03-06T12:11:03;101717.13;;;8.85;69.24
60465;BME280;46314;52.392;9.758;2024-03-06T12:13:30;101715.75;;;8.88;69.07
60465;BME280;46314;52.392;9.758;2024-03-06T12:15:58;101716.00;;;8.81;69.85
60465;BME280;46314;52.392;9.758;2024-03-06T12:18:29;101718.59;;;9.31;67.52
60465;BME280;46314;52.392;9.758;2024-03-06T12:20:55;101718.00;;;9.76;67.32
60465;BME280;46314;52.392;9.758;2024-03-06T12:23:23;101721.44;;;10.09;64.94
60465;BME280;46314;52.392;9.758;2024-03-06T12:25:50;101718.69;;;9.51;66.84
60465;BME280;46314;52.392;9.758;2024-03-06T12:28:31;101719.72;;;8.97;67.99
60465;BME280;46314;52.392;9.758;2024-03-06T12:31:02;101716.44;;;9.05;67.29
60465;BME280;46314;52.392;9.758;2024-03-06T12:33:28;101718.16;;;9.54;65.58
60465;BME280;46314;52.392;9.758;2024-03-06T12:36:03;101717.28;;;9.43;66.57
60465;BME280;46314;52.392;9.758;2024-03-06T12:38:30;101716.84;;;9.19;67.70
60465;BME280;46314;52.392;9.758;2024-03-06T12:40:57;101713.44;;;9.55;65.96
60465;BME280;46314;52.392;9.758;2024-03-06T12:43:23;101709.94;;;9.22;67.35
60465;BME280;46314;52.392;9.758;2024-03-06T12:45:50;101716.41;;;9.00;69.42
60465;BME280;46314;52.392;9.758;2024-03-06T12:48:18;101712.84;;;9.05;70.38
60465;BME280;46314;52.392;9.758;2024-03-06T12:50:44;101707.59;;;9.46;69.80
60465;BME280;46314;52.392;9.758;2024-03-06T12:53:11;101716.66;;;8.99;70.34
60465;BME280;46314;52.392;9.758;2024-03-06T12:55:37;101705.22;;;8.52;70.34
60465;BME280;46314;52.392;9.758;2024-03-06T12:58:04;101713.16;;;8.71;69.01
60465;BME280;46314;52.392;9.758;2024-03-06T13:00:30;101707.66;;;9.14;68.53
60465;BME280;46314;52.392;9.758;2024-03-06T13:02:56;101706.91;;;9.81;64.03
60465;BME280;46314;52.392;9.758;2024-03-06T13:05:24;101702.44;;;9.70;64.56